sensor_id;sensor_type;location;lat;lon;timestamp;pressure;altitude;pressure_sealevel;temperature;humidity
80335;BME280;69653;52.674;13.574;2023-05-19T00:01:19;101892.09;;;7.62;66.64
80335;BME280;69653;52.674;13.574;2023-05-19T00:06:21;101884.34;;;7.54;66.12
80335;BME280;69653;52.674;13.574;2023-05-19T00:08:48;101892.19;;;7.51;66.31
80335;BME280;69653;52.674;13.574;2023-05-19T00:11:14;101922.59;;;7.64;66.43
80335;BME280;69653;52.674;13.574;2023-05-19T00:13:39;101906.13;;;7.54;66.38
80335;BME280;69653;52.674;13.574;2023-05-19T00:16:05;101886.22;;;7.37;66.46
80335;BME280;69653;52.674;13.574;2023-05-19T00:18:31;101876.44;;;7.36;66.21
80335;BME280;69653;52.674;13.574;2023-05-19T00:20:56;101890.94;;;7.42;66.09
80335;BME280;69653;52.674;13.574;2023-05-19T00:23:21;101904.03;;;7.45;66.33
80335;BME280;69653;52.674;13.574;2023-05-19T00:25:47;101869.41;;;7.23;66.39
80335;BME280;69653;52.674;13.574;2023-05-19T00:28:12;101878.16;;;7.25;66.62
80335;BME280;69653;52.674;13.574;2023-05-19T00:30:37;101871.91;;;7.25;66.22
80335;BME280;69653;52.674;13.574;2023-05-19T00:33:02;101869.69;;;7.22;66.52
80335;BME280;69653;52.674;13.574;2023-05-19T00:35:28;101866.34;;;7.20;66.73
80335;BME280;69653;52.674;13.574;2023-05-19T00:37:53;101863.72;;;7.08;66.73
80335;BME280;69653;52.674;13.574;2023-05-19T00:40:18;101866.91;;;7.05;66.82
80335;BME280;69653;52.674;13.574;2023-05-19T00:42:44;101859.59;;;7.06;66.93
80335;BME280;69653;52.674;13.574;2023-05-19T00:45:09;101871.53;;;7.05;66.53
80335;BME280;69653;52.674;13.574;2023-05-19T00:47:35;101904.22;;;7.21;67.28
80335;BME280;69653;52.674;13.574;2023-05-19T00:50:00;101874.25;;;7.05;67.08
80335;BME280;69653;52.674;13.574;2023-05-19T00:52:26;101870.53;;;6.94;67.04
80335;BME280;69653;52.674;13.574;2023-05-19T00:54:52;101886.19;;;7.04;67.43
80335;BME280;69653;52.674;13.574;2023-05-19T00:57:19;101879.59;;;7.00;67.00
80335;BME280;69653;52.674;13.574;2023-05-19T00:59:48;101870.44;;;6.89;67.74
80335;BME280;69653;52.674;13.574;2023-05-19T01:02:13;101872.31;;;6.89;67.54
80335;BME280;69653;52.674;13.574;2023-05-19T01:04:39;101866.31;;;6.87;67.52
80335;BME280;69653;52.674;13.574;2023-05-19T01:07:06;101907.94;;;7.04;67.72
80335;BME280;69653;52.674;13.574;2023-05-19T01:09:31;101858.47;;;6.73;67.75
80335;BME280;69653;52.674;13.574;2023-05-19T01:11:57;101896.06;;;6.93;67.73
80335;BME280;69653;52.674;13.574;2023-05-19T01:14:23;101904.50;;;6.92;67.87
80335;BME280;69653;52.674;13.574;2023-05-19T01:27:53;101865.47;;;6.69;68.68
80335;BME280;69653;52.674;13.574;2023-05-19T01:32:54;101901.66;;;6.87;68.77
80335;BME280;69653;52.674;13.574;2023-05-19T01:35:24;101898.13;;;6.86;68.63
80335;BME280;69653;52.674;13.574;2023-05-19T01:37:55;101869.41;;;6.62;68.85
80335;BME280;69653;52.674;13.574;2023-05-19T01:40:22;101886.59;;;6.67;69.10
80335;BME280;69653;52.674;13.574;2023-05-19T01:42:48;101867.63;;;6.56;69.05
80335;BME280;69653;52.674;13.574;2023-05-19T01:45:15;101877.28;;;6.63;68.57
80335;BME280;69653;52.674;13.574;2023-05-19T01:47:42;101885.88;;;6.72;68.99
80335;BME280;69653;52.674;13.574;2023-05-19T01:50:08;101875.88;;;6.61;68.53
80335;BME280;69653;52.674;13.574;2023-05-19T01:52:34;101897.22;;;6.80;69.16
80335;BME280;69653;52.674;13.574;2023-05-19T01:54:59;101869.72;;;6.65;68.77
80335;BME280;69653;52.674;13.574;2023-05-19T01:57:50;101907.09;;;6.87;69.18
80335;BME280;69653;52.674;13.574;2023-05-19T02:14:24;101873.84;;;6.68;69.20
80335;BME280;69653;52.674;13.574;2023-05-19T02:16:56;101882.44;;;6.76;69.24
80335;BME280;69653;52.674;13.574;2023-05-19T02:19:24;101907.28;;;6.97;69.21
80335;BME280;69653;52.674;13.574;2023-05-19T02:21:50;101911.44;;;6.99;68.88
80335;BME280;69653;52.674;13.574;2023-05-19T02:24:17;101903.84;;;7.01;69.09
80335;BME280;69653;52.674;13.574;2023-05-19T02:26:44;101909.50;;;7.00;69.11
80335;BME280;69653;52.674;13.574;2023-05-19T02:29:10;101882.94;;;6.73;69.44
80335;BME280;69653;52.674;13.574;2023-05-19T02:31:35;101878.06;;;6.75;68.76
80335;BME280;69653;52.674;13.574;2023-05-19T02:34:00;101900.69;;;6.93;68.95
80335;BME280;69653;52.674;13.574;2023-05-19T02:36:26;101867.69;;;6.72;69.47
80335;BME280;69653;52.674;13.574;2023-05-19T02:38:52;101870.31;;;6.67;69.19
80335;BME280;69653;52.674;13.574;2023-05-19T02:41:17;101870.91;;;6.69;69.56
80335;BME280;69653;52.674;13.574;2023-05-19T02:43:43;101863.69;;;6.63;70.33
80335;BME280;69653;52.674;13.574;2023-05-19T02:46:08;101862.41;;;6.66;70.68
80335;BME280;69653;52.674;13.574;2023-05-19T02:48:34;101861.91;;;6.69;70.37
80335;BME280;69653;52.674;13.574;2023-05-19T02:50:59;101854.47;;;6.64;70.37
80335;BME280;69653;52.674;13.574;2023-05-19T02:53:24;101861.56;;;6.65;70.28
80335;BME280;69653;52.674;13.574;2023-05-19T02:55:50;101853.66;;;6.64;70.50
80335;BME280;69653;52.674;13.574;2023-05-19T02:58:15;101858.25;;;6.63;70.12
80335;BME280;69653;52.674;13.574;2023-05-19T03:00:40;101880.22;;;6.73;70.57
80335;BME280;69653;52.674;13.574;2023-05-19T03:03:08;101859.13;;;6.52;71.08
80335;BME280;69653;52.674;13.574;2023-05-19T03:05:34;101853.34;;;6.49;71.25
80335;BME280;69653;52.674;13.574;2023-05-19T03:08:00;101853.84;;;6.46;70.99
80335;BME280;69653;52.674;13.574;2023-05-19T03:10:25;101846.19;;;6.43;71.40
80335;BME280;69653;52.674;13.574;2023-05-19T03:12:50;101872.94;;;6.62;71.17
80335;BME280;69653;52.674;13.574;2023-05-19T03:15:16;101855.13;;;6.55;71.21
80335;BME280;69653;52.674;13.574;2023-05-19T03:17:42;101872.34;;;6.60;70.84
80335;BME280;69653;52.674;13.574;2023-05-19T03:20:08;101864.19;;;6.60;70.47
80335;BME280;69653;52.674;13.574;2023-05-19T03:22:35;101875.75;;;6.67;70.86
80335;BME280;69653;52.674;13.574;2023-05-19T03:25:00;101861.81;;;6.64;71.03
80335;BME280;69653;52.674;13.574;2023-05-19T03:27:26;101866.53;;;6.68;70.50
80335;BME280;69653;52.674;13.574;2023-05-19T03:29:51;101901.16;;;6.90;70.37
80335;BME280;69653;52.674;13.574;2023-05-19T03:32:17;101867.34;;;6.69;70.66
80335;BME280;69653;52.674;13.574;2023-05-19T03:34:43;101864.88;;;6.67;70.67
80335;BME280;69653;52.674;13.574;2023-05-19T03:37:08;101867.34;;;6.69;71.03
80335;BME280;69653;52.674;13.574;2023-05-19T03:39:35;101854.47;;;6.64;70.90
80335;BME280;69653;52.674;13.574;2023-05-19T03:42:00;101870.59;;;6.82;70.66
80335;BME280;69653;52.674;13.574;2023-05-19T03:44:25;101856.81;;;6.72;70.47
80335;BME280;69653;52.674;13.574;2023-05-19T03:46:50;101884.03;;;6.89;70.11
80335;BME280;69653;52.674;13.574;2023-05-19T03:49:16;101861.88;;;6.80;70.51
80335;BME280;69653;52.674;13.574;2023-05-19T03:51:41;101891.16;;;7.07;70.14
80335;BME280;69653;52.674;13.574;2023-05-19T03:54:07;101849.09;;;6.81;70.69
80335;BME280;69653;52.674;13.574;2023-05-19T03:56:32;101874.75;;;7.02;69.74
80335;BME280;69653;52.674;13.574;2023-05-19T03:58:58;101867.41;;;7.02;69.53
80335;BME280;69653;52.674;13.574;2023-05-19T04:01:24;101898.00;;;7.26;70.12
80335;BME280;69653;52.674;13.574;2023-05-19T04:03:49;101889.84;;;7.26;69.28
80335;BME280;69653;52.674;13.574;2023-05-19T04:06:15;101866.44;;;7.08;68.96
80335;BME280;69653;52.674;13.574;2023-05-19T04:08:41;101897.47;;;7.41;69.75
80335;BME280;69653;52.674;13.574;2023-05-19T04:11:08;101886.72;;;7.34;68.94
80335;BME280;69653;52.674;13.574;2023-05-19T04:13:33;101905.63;;;7.57;68.82
80335;BME280;69653;52.674;13.574;2023-05-19T04:15:59;101885.00;;;7.61;68.41
80335;BME280;69653;52.674;13.574;2023-05-19T04:18:25;101872.69;;;7.75;67.83
80335;BME280;69653;52.674;13.574;2023-05-19T04:20:50;101868.47;;;7.85;67.51
80335;BME280;69653;52.674;13.574;2023-05-19T04:23:16;101865.31;;;7.93;66.77
80335;BME280;69653;52.674;13.574;2023-05-19T04:25:41;101903.59;;;8.24;66.74
80335;BME280;69653;52.674;13.574;2023-05-19T04:28:07;101874.69;;;8.02;66.67
80335;BME280;69653;52.674;13.574;2023-05-19T04:30:32;101891.06;;;8.23;66.69
80335;BME280;69653;52.674;13.574;2023-05-19T04:32:58;101883.84;;;8.34;66.03
80335;BME280;69653;52.674;13.574;2023-05-19T04:35:25;101898.13;;;8.63;65.54
80335;BME280;69653;52.674;13.574;2023-05-19T04:37:51;101878.16;;;8.57;64.99
80335;BME280;69653;52.674;13.574;2023-05-19T04:40:18;101905.69;;;8.83;65.05
80335;BME280;69653;52.674;13.574;2023-05-19T04:42:45;101890.97;;;8.84;64.79
80335;BME280;69653;52.674;13.574;2023-05-19T04:45:10;101908.66;;;9.03;64.67
80335;BME280;69653;52.674;13.574;2023-05-19T04:47:39;101876.38;;;8.95;64.36
80335;BME280;69653;52.674;13.574;2023-05-19T04:50:06;101895.31;;;9.06;64.12
80335;BME280;69653;52.674;13.574;2023-05-19T04:52:32;101881.31;;;8.98;64.35
80335;BME280;69653;52.674;13.574;2023-05-19T04:54:58;101902.28;;;9.19;63.86
80335;BME280;69653;52.674;13.574;2023-05-19T04:57:23;101915.47;;;9.32;63.78
80335;BME280;69653;52.674;13.574;2023-05-19T04:59:49;101882.63;;;9.22;63.99
80335;BME280;69653;52.674;13.574;2023-05-19T05:02:14;101886.34;;;9.38;63.51
80335;BME280;69653;52.674;13.574;2023-05-19T05:04:40;101888.59;;;9.51;63.14
80335;BME280;69653;52.674;13.574;2023-05-19T05:07:08;101875.47;;;9.48;62.74
80335;BME280;69653;52.674;13.574;2023-05-19T05:09:34;101884.28;;;9.55;62.56
80335;BME280;69653;52.674;13.574;2023-05-19T05:12:00;101915.09;;;9.87;62.49
80335;BME280;69653;52.674;13.574;2023-05-19T05:14:26;101877.63;;;9.78;61.67
80335;BME280;69653;52.674;13.574;2023-05-19T05:16:52;101883.75;;;10.00;60.89
80335;BME280;69653;52.674;13.574;2023-05-19T05:19:18;101891.00;;;10.16;60.11
80335;BME280;69653;52.674;13.574;2023-05-19T05:21:44;101899.25;;;10.31;60.45
80335;BME280;69653;52.674;13.574;2023-05-19T05:24:10;101889.44;;;10.40;59.91
80335;BME280;69653;52.674;13.574;2023-05-19T05:26:36;101876.34;;;10.47;60.04
80335;BME280;69653;52.674;13.574;2023-05-19T05:29:02;101895.56;;;10.73;59.60
80335;BME280;69653;52.674;13.574;2023-05-19T05:31:28;101912.09;;;10.98;58.63
80335;BME280;69653;52.674;13.574;2023-05-19T05:33:53;101897.00;;;11.05;58.65
80335;BME280;69653;52.674;13.574;2023-05-19T05:36:18;101892.97;;;11.38;57.92
80335;BME280;69653;52.674;13.574;2023-05-19T05:38:44;101914.34;;;11.72;57.37
80335;BME280;69653;52.674;13.574;2023-05-19T05:41:09;101871.56;;;11.71;56.71
80335;BME280;69653;52.674;13.574;2023-05-19T05:43:34;101880.03;;;11.99;56.20
80335;BME280;69653;52.674;13.574;2023-05-19T05:46:00;101908.97;;;12.41;55.28
80335;BME280;69653;52.674;13.574;2023-05-19T05:48:25;101890.59;;;12.46;54.77
80335;BME280;69653;52.674;13.574;2023-05-19T05:50:51;101891.63;;;12.60;54.47
80335;BME280;69653;52.674;13.574;2023-05-19T05:53:18;101877.97;;;12.50;54.38
80335;BME280;69653;52.674;13.574;2023-05-19T05:55:45;101916.19;;;12.81;53.95
80335;BME280;69653;52.674;13.574;2023-05-19T05:58:11;101893.22;;;12.67;53.84
80335;BME280;69653;52.674;13.574;2023-05-19T06:00:37;101889.44;;;12.57;54.12
80335;BME280;69653;52.674;13.574;2023-05-19T06:03:02;101896.25;;;12.65;54.27
80335;BME280;69653;52.674;13.574;2023-05-19T06:05:29;101886.94;;;12.61;54.20
80335;BME280;69653;52.674;13.574;2023-05-19T06:07:54;101901.44;;;12.72;53.54
80335;BME280;69653;52.674;13.574;2023-05-19T06:10:20;101910.13;;;12.89;53.85
80335;BME280;69653;52.674;13.574;2023-05-19T06:12:46;101886.00;;;12.81;54.32
80335;BME280;69653;52.674;13.574;2023-05-19T06:15:12;101917.72;;;13.12;53.88
80335;BME280;69653;52.674;13.574;2023-05-19T06:17:37;101875.97;;;13.05;53.27
80335;BME280;69653;52.674;13.574;2023-05-19T06:20:03;101878.69;;;13.15;52.52
80335;BME280;69653;52.674;13.574;2023-05-19T06:22:32;101885.31;;;13.77;52.33
80335;BME280;69653;52.674;13.574;2023-05-19T06:24:58;101874.63;;;14.23;50.28
80335;BME280;69653;52.674;13.574;2023-05-19T06:27:23;101881.00;;;14.66;49.65
80335;BME280;69653;52.674;13.574;2023-05-19T06:29:49;101883.25;;;14.82;48.87
80335;BME280;69653;52.674;13.574;2023-05-19T06:32:14;101891.50;;;14.82;48.04
80335;BME280;69653;52.674;13.574;2023-05-19T06:34:40;101891.06;;;14.94;47.70
80335;BME280;69653;52.674;13.574;2023-05-19T06:37:05;101887.34;;;15.22;47.24
80335;BME280;69653;52.674;13.574;2023-05-19T06:39:30;101874.16;;;15.70;46.85
80335;BME280;69653;52.674;13.574;2023-05-19T06:41:56;101897.00;;;16.17;45.92
80335;BME280;69653;52.674;13.574;2023-05-19T06:44:21;101916.06;;;16.59;45.77
80335;BME280;69653;52.674;13.574;2023-05-19T06:46:47;101895.53;;;16.87;44.85
80335;BME280;69653;52.674;13.574;2023-05-19T06:49:12;101906.34;;;17.33;43.26
80335;BME280;69653;52.674;13.574;2023-05-19T06:51:38;101906.00;;;17.71;42.45
80335;BME280;69653;52.674;13.574;2023-05-19T06:54:03;101889.53;;;17.97;41.53
80335;BME280;69653;52.674;13.574;2023-05-19T06:56:28;101918.16;;;18.31;41.25
80335;BME280;69653;52.674;13.574;2023-05-19T06:58:54;101910.38;;;18.33;40.78
80335;BME280;69653;52.674;13.574;2023-05-19T07:01:20;101921.16;;;18.43;40.84
80335;BME280;69653;52.674;13.574;2023-05-19T07:03:45;101916.31;;;18.49;40.89
80335;BME280;69653;52.674;13.574;2023-05-19T07:06:11;101928.16;;;18.41;40.70
80335;BME280;69653;52.674;13.574;2023-05-19T07:08:36;101897.34;;;18.34;40.78
80335;BME280;69653;52.674;13.574;2023-05-19T07:11:02;101919.69;;;18.37;40.76
80335;BME280;69653;52.674;13.574;2023-05-19T07:13:27;101885.13;;;18.26;40.75
80335;BME280;69653;52.674;13.574;2023-05-19T07:15:52;101888.41;;;17.98;40.96
80335;BME280;69653;52.674;13.574;2023-05-19T07:18:21;101890.78;;;17.90;41.25
80335;BME280;69653;52.674;13.574;2023-05-19T07:20:46;101890.06;;;18.07;41.20
80335;BME280;69653;52.674;13.574;2023-05-19T07:23:11;101903.91;;;18.07;41.09
80335;BME280;69653;52.674;13.574;2023-05-19T07:25:37;101914.91;;;18.60;40.89
80335;BME280;69653;52.674;13.574;2023-05-19T07:28:03;101905.94;;;18.63;40.18
80335;BME280;69653;52.674;13.574;2023-05-19T07:30:28;101904.97;;;18.68;39.98
80335;BME280;69653;52.674;13.574;2023-05-19T07:32:54;101884.84;;;18.45;39.87
80335;BME280;69653;52.674;13.574;2023-05-19T07:35:19;101890.19;;;18.33;39.81
80335;BME280;69653;52.674;13.574;2023-05-19T07:37:47;101883.09;;;18.58;39.89
80335;BME280;69653;52.674;13.574;2023-05-19T07:40:13;101891.28;;;18.80;38.95
80335;BME280;69653;52.674;13.574;2023-05-19T07:42:38;101892.59;;;18.91;38.52
80335;BME280;69653;52.674;13.574;2023-05-19T07:45:04;101870.75;;;18.81;37.92
80335;BME280;69653;52.674;13.574;2023-05-19T07:47:30;101871.91;;;19.06;37.58
80335;BME280;69653;52.674;13.574;2023-05-19T07:49:55;101879.09;;;19.41;37.60
80335;BME280;69653;52.674;13.574;2023-05-19T07:52:21;101908.59;;;19.80;37.73
80335;BME280;69653;52.674;13.574;2023-05-19T07:54:46;101880.25;;;19.49;36.76
80335;BME280;69653;52.674;13.574;2023-05-19T07:57:12;101884.31;;;19.60;36.70
80335;BME280;69653;52.674;13.574;2023-05-19T07:59:38;101875.28;;;19.80;37.08
80335;BME280;69653;52.674;13.574;2023-05-19T08:02:04;101873.56;;;20.05;36.37
80335;BME280;69653;52.674;13.574;2023-05-19T08:04:29;101879.44;;;20.70;35.56
80335;BME280;69653;52.674;13.574;2023-05-19T08:06:54;101887.91;;;20.74;34.19
80335;BME280;69653;52.674;13.574;2023-05-19T08:11:45;101884.59;;;20.60;34.58
80335;BME280;69653;52.674;13.574;2023-05-19T08:14:11;101909.47;;;20.77;33.86
80335;BME280;69653;52.674;13.574;2023-05-19T08:16:36;101871.31;;;20.86;33.94
80335;BME280;69653;52.674;13.574;2023-05-19T08:19:02;101871.16;;;21.12;34.53
80335;BME280;69653;52.674;13.574;2023-05-19T08:21:29;101872.09;;;21.69;33.23
80335;BME280;69653;52.674;13.574;2023-05-19T08:23:58;101885.25;;;21.60;33.81
80335;BME280;69653;52.674;13.574;2023-05-19T08:26:24;101902.97;;;21.89;32.63
80335;BME280;69653;52.674;13.574;2023-05-19T08:28:50;101908.75;;;22.65;32.11
80335;BME280;69653;52.674;13.574;2023-05-19T08:31:15;101896.91;;;22.56;32.38
80335;BME280;69653;52.674;13.574;2023-05-19T08:33:42;101887.84;;;22.22;32.07
80335;BME280;69653;52.674;13.574;2023-05-19T08:36:07;101900.41;;;22.77;31.70
80335;BME280;69653;52.674;13.574;2023-05-19T08:38:33;101876.31;;;22.00;31.63
80335;BME280;69653;52.674;13.574;2023-05-19T08:40:58;101888.50;;;21.29;32.01
80335;BME280;69653;52.674;13.574;2023-05-19T08:45:49;101867.22;;;20.42;33.98
80335;BME280;69653;52.674;13.574;2023-05-19T08:48:16;101889.81;;;20.23;34.81
80335;BME280;69653;52.674;13.574;2023-05-19T08:50:57;101877.03;;;19.93;36.00
80335;BME280;69653;52.674;13.574;2023-05-19T08:53:34;101866.69;;;19.56;36.68
80335;BME280;69653;52.674;13.574;2023-05-19T08:56:04;101867.09;;;20.59;36.22
80335;BME280;69653;52.674;13.574;2023-05-19T08:58:35;101864.22;;;20.47;34.95
80335;BME280;69653;52.674;13.574;2023-05-19T09:01:01;101859.25;;;19.94;34.17
80335;BME280;69653;52.674;13.574;2023-05-19T09:03:27;101884.59;;;20.22;34.52
80335;BME280;69653;52.674;13.574;2023-05-19T09:05:53;101869.03;;;20.38;34.79
80335;BME280;69653;52.674;13.574;2023-05-19T09:08:18;101862.50;;;20.25;34.08
80335;BME280;69653;52.674;13.574;2023-05-19T09:10:44;101846.56;;;20.93;33.75
80335;BME280;69653;52.674;13.574;2023-05-19T09:13:09;101859.75;;;20.84;33.58
80335;BME280;69653;52.674;13.574;2023-05-19T09:15:37;101881.41;;;20.70;33.77
80335;BME280;69653;52.674;13.574;2023-05-19T09:18:09;101868.88;;;20.64;33.92
80335;BME280;69653;52.674;13.574;2023-05-19T09:20:39;101869.31;;;20.95;32.90
80335;BME280;69653;52.674;13.574;2023-05-19T09:23:05;101840.66;;;20.53;33.47
80335;BME280;69653;52.674;13.574;2023-05-19T09:25:32;101847.53;;;20.97;32.63
80335;BME280;69653;52.674;13.574;2023-05-19T09:27:58;101853.50;;;21.28;32.62
80335;BME280;69653;52.674;13.574;2023-05-19T09:30:23;101847.78;;;21.04;32.75
80335;BME280;69653;52.674;13.574;2023-05-19T09:32:50;101842.75;;;20.77;31.56
80335;BME280;69653;52.674;13.574;2023-05-19T09:35:15;101831.25;;;21.28;31.50
80335;BME280;69653;52.674;13.574;2023-05-19T09:37:46;101831.59;;;21.72;30.25
80335;BME280;69653;52.674;13.574;2023-05-19T09:40:13;101836.44;;;21.63;29.76
80335;BME280;69653;52.674;13.574;2023-05-19T09:42:40;101836.69;;;21.25;31.54
80335;BME280;69653;52.674;13.574;2023-05-19T09:45:06;101857.38;;;21.15;31.65
80335;BME280;69653;52.674;13.574;2023-05-19T09:47:37;101837.97;;;20.86;32.54
80335;BME280;69653;52.674;13.574;2023-05-19T09:50:07;101857.75;;;20.85;31.56
80335;BME280;69653;52.674;13.574;2023-05-19T09:52:43;101825.41;;;20.39;32.49
80335;BME280;69653;52.674;13.574;2023-05-19T09:55:10;101860.50;;;20.43;33.11
80335;BME280;69653;52.674;13.574;2023-05-19T09:57:36;101837.53;;;19.88;32.84
80335;BME280;69653;52.674;13.574;2023-05-19T10:00:07;101826.94;;;20.19;32.53
80335;BME280;69653;52.674;13.574;2023-05-19T10:02:40;101827.03;;;20.81;31.80
80335;BME280;69653;52.674;13.574;2023-05-19T10:05:08;101824.47;;;20.76;31.76
80335;BME280;69653;52.674;13.574;2023-05-19T10:07:35;101818.75;;;20.52;31.51
80335;BME280;69653;52.674;13.574;2023-05-19T10:10:01;101815.97;;;20.22;31.51
80335;BME280;69653;52.674;13.574;2023-05-19T10:12:27;101827.47;;;20.92;31.81
80335;BME280;69653;52.674;13.574;2023-05-19T10:14:54;101853.09;;;20.97;31.55
80335;BME280;69653;52.674;13.574;2023-05-19T10:17:21;101815.88;;;20.69;31.09
80335;BME280;69653;52.674;13.574;2023-05-19T10:19:46;101807.63;;;20.31;31.15
80335;BME280;69653;52.674;13.574;2023-05-19T10:22:13;101838.47;;;20.38;31.69
80335;BME280;69653;52.674;13.574;2023-05-19T10:24:39;101820.16;;;19.99;31.47
80335;BME280;69653;52.674;13.574;2023-05-19T10:27:07;101818.44;;;19.86;32.69
80335;BME280;69653;52.674;13.574;2023-05-19T10:29:35;101842.91;;;19.84;32.37
80335;BME280;69653;52.674;13.574;2023-05-19T10:32:06;101810.72;;;19.54;32.24
80335;BME280;69653;52.674;13.574;2023-05-19T10:37:33;101836.38;;;19.89;31.63
80335;BME280;69653;52.674;13.574;2023-05-19T10:40:18;101797.78;;;20.33;32.19
80335;BME280;69653;52.674;13.574;2023-05-19T10:45:26;101811.84;;;20.99;29.62
80335;BME280;69653;52.674;13.574;2023-05-19T10:47:53;101804.25;;;20.67;29.61
80335;BME280;69653;52.674;13.574;2023-05-19T10:50:19;101793.19;;;20.08;30.95
80335;BME280;69653;52.674;13.574;2023-05-19T10:52:51;101796.66;;;20.26;31.59
80335;BME280;69653;52.674;13.574;2023-05-19T10:55:44;101799.38;;;20.64;31.04
80335;BME280;69653;52.674;13.574;2023-05-19T10:58:10;101805.63;;;20.81;30.29
80335;BME280;69653;52.674;13.574;2023-05-19T11:00:37;101788.25;;;20.85;30.66
80335;BME280;69653;52.674;13.574;2023-05-19T11:03:16;101790.50;;;20.70;30.22
80335;BME280;69653;52.674;13.574;2023-05-19T11:05:47;101805.34;;;20.54;30.99
80335;BME280;69653;52.674;13.574;2023-05-19T11:08:15;101785.41;;;20.31;31.25
80335;BME280;69653;52.674;13.574;2023-05-19T11:10:44;101789.06;;;20.44;31.10
80335;BME280;69653;52.674;13.574;2023-05-19T11:13:18;101803.72;;;20.73;29.96
80335;BME280;69653;52.674;13.574;2023-05-19T11:15:44;101759.34;;;20.65;29.96
80335;BME280;69653;52.674;13.574;2023-05-19T11:18:12;101787.16;;;20.98;30.59
80335;BME280;69653;52.674;13.574;2023-05-19T11:20:39;101778.22;;;20.92;30.41
80335;BME280;69653;52.674;13.574;2023-05-19T11:25:42;101806.41;;;21.23;29.49
80335;BME280;69653;52.674;13.574;2023-05-19T11:28:09;101763.19;;;20.72;29.90
80335;BME280;69653;52.674;13.574;2023-05-19T11:33:02;101787.84;;;20.74;30.57
80335;BME280;69653;52.674;13.574;2023-05-19T11:35:28;101781.91;;;20.43;30.73
80335;BME280;69653;52.674;13.574;2023-05-19T11:37:54;101764.28;;;20.09;32.36
80335;BME280;69653;52.674;13.574;2023-05-19T11:40:20;101800.84;;;20.41;32.60
80335;BME280;69653;52.674;13.574;2023-05-19T11:42:47;101767.81;;;20.68;31.85
80335;BME280;69653;52.674;13.574;2023-05-19T11:45:12;101762.50;;;20.75;30.91
80335;BME280;69653;52.674;13.574;2023-05-19T11:47:37;101766.44;;;20.95;31.04
80335;BME280;69653;52.674;13.574;2023-05-19T11:50:03;101772.13;;;20.78;31.07
80335;BME280;69653;52.674;13.574;2023-05-19T11:52:29;101777.84;;;20.61;31.88
80335;BME280;69653;52.674;13.574;2023-05-19T11:54:58;101791.31;;;20.50;31.23
80335;BME280;69653;52.674;13.574;2023-05-19T11:57:25;101764.72;;;19.82;30.98
80335;BME280;69653;52.674;13.574;2023-05-19T11:59:50;101759.75;;;19.67;32.11
80335;BME280;69653;52.674;13.574;2023-05-19T12:02:19;101790.75;;;19.69;32.47
80335;BME280;69653;52.674;13.574;2023-05-19T12:04:46;101770.91;;;19.50;33.34
80335;BME280;69653;52.674;13.574;2023-05-19T12:07:11;101775.69;;;19.78;33.23
80335;BME280;69653;52.674;13.574;2023-05-19T12:09:38;101763.69;;;19.95;32.93
80335;BME280;69653;52.674;13.574;2023-05-19T12:12:04;101751.84;;;20.07;32.28
80335;BME280;69653;52.674;13.574;2023-05-19T12:14:29;101770.44;;;20.15;31.99
80335;BME280;69653;52.674;13.574;2023-05-19T12:16:58;101759.22;;;20.03;31.30
80335;BME280;69653;52.674;13.574;2023-05-19T12:19:33;101757.38;;;20.15;31.71
80335;BME280;69653;52.674;13.574;2023-05-19T12:21:59;101765.22;;;20.43;31.14
80335;BME280;69653;52.674;13.574;2023-05-19T12:24:24;101756.38;;;21.03;30.21
80335;BME280;69653;52.674;13.574;2023-05-19T12:26:50;101767.34;;;20.99;30.10
80335;BME280;69653;52.674;13.574;2023-05-19T12:29:15;101796.72;;;21.09;30.39
80335;BME280;69653;52.674;13.574;2023-05-19T12:31:45;101746.41;;;20.19;30.74
80335;BME280;69653;52.674;13.574;2023-05-19T12:34:11;101743.31;;;19.91;31.56
80335;BME280;69653;52.674;13.574;2023-05-19T12:36:37;101756.03;;;19.92;31.20
80335;BME280;69653;52.674;13.574;2023-05-19T12:39:03;101743.19;;;19.50;30.66
80335;BME280;69653;52.674;13.574;2023-05-19T12:41:29;101754.06;;;19.93;30.45
80335;BME280;69653;52.674;13.574;2023-05-19T12:43:54;101773.03;;;20.49;30.75
80335;BME280;69653;52.674;13.574;2023-05-19T12:46:20;101776.81;;;20.86;31.29
80335;BME280;69653;52.674;13.574;2023-05-19T12:51:18;101742.16;;;20.63;30.67
80335;BME280;69653;52.674;13.574;2023-05-19T12:53:44;101747.47;;;20.35;31.03
80335;BME280;69653;52.674;13.574;2023-05-19T12:56:13;101769.69;;;20.06;31.86
80335;BME280;69653;52.674;13.574;2023-05-19T12:58:41;101739.16;;;20.06;31.95
80335;BME280;69653;52.674;13.574;2023-05-19T13:01:15;101745.22;;;20.28;31.36
80335;BME280;69653;52.674;13.574;2023-05-19T13:03:40;101744.06;;;20.71;30.62
80335;BME280;69653;52.674;13.574;2023-05-19T13:06:07;101756.63;;;21.10;30.11
80335;BME280;69653;52.674;13.574;2023-05-19T13:08:33;101734.59;;;21.05;30.85
80335;BME280;69653;52.674;13.574;2023-05-19T13:10:59;101732.00;;;20.88;30.79
80335;BME280;69653;52.674;13.574;2023-05-19T13:13:25;101742.16;;;20.63;31.42
80335;BME280;69653;52.674;13.574;2023-05-19T13:15:51;101752.34;;;20.59;31.70
80335;BME280;69653;52.674;13.574;2023-05-19T13:18:16;101748.63;;;20.34;31.53
80335;BME280;69653;52.674;13.574;2023-05-19T13:20:43;101762.19;;;20.27;31.62
80335;BME280;69653;52.674;13.574;2023-05-19T13:23:13;101725.41;;;20.09;31.11
80335;BME280;69653;52.674;13.574;2023-05-19T13:25:39;101731.13;;;19.75;32.04
80335;BME280;69653;52.674;13.574;2023-05-19T13:28:05;101752.78;;;19.90;32.14